sensor_id;sensor_type;location;lat;lon;timestamp;P1;durP1;ratioP1;P2;durP2;ratioP2
3207;SDS011;1616;52.394;9.756;2022-12-13T00:01:19;42.10;;;17.73;;
3207;SDS011;1616;52.394;9.756;2022-12-13T00:03:46;42.73;;;17.90;;
3207;SDS011;1616;52.394;9.756;2022-12-13T00:06:12;37.77;;;16.43;;
3207;SDS011;1616;52.394;9.756;2022-12-13T00:08:38;47.50;;;18.80;;
3207;SDS011;1616;52.394;9.756;2022-12-13T00:11:07;40.80;;;16.33;;
3207;SDS011;1616;52.394;9.756;2022-12-13T00:13:35;49.80;;;18.73;;
3207;SDS011;1616;52.394;9.756;2022-12-13T00:16:02;40.10;;;17.83;;
3207;SDS011;1616;52.394;9.756;2022-12-13T00:18:31;50.43;;;18.50;;
3207;SDS011;1616;52.394;9.756;2022-12-13T00:20:59;49.53;;;19.23;;
3207;SDS011;1616;52.394;9.756;2022-12-13T00:23:29;36.83;;;16.10;;
3207;SDS011;1616;52.394;9.756;2022-12-13T00:26:00;49.57;;;20.40;;
3207;SDS011;1616;52.394;9.756;2022-12-13T00:28:27;41.57;;;18.57;;
3207;SDS011;1616;52.394;9.756;2022-12-13T00:30:55;53.27;;;19.30;;
3207;SDS011;1616;52.394;9.756;2022-12-13T00:33:22;51.03;;;17.47;;
3207;SDS011;1616;52.394;9.756;2022-12-13T00:35:48;44.90;;;18.10;;
3207;SDS011;1616;52.394;9.756;2022-12-13T00:38:13;37.03;;;16.57;;
3207;SDS011;1616;52.394;9.756;2022-12-13T00:40:39;38.10;;;16.50;;
3207;SDS011;1616;52.394;9.756;2022-12-13T00:43:04;39.03;;;17.40;;
3207;SDS011;1616;52.394;9.756;2022-12-13T00:45:31;37.40;;;17.87;;
3207;SDS011;1616;52.394;9.756;2022-12-13T00:47:57;42.43;;;18.37;;
3207;SDS011;1616;52.394;9.756;2022-12-13T00:50:23;49.43;;;18.57;;
3207;SDS011;1616;52.394;9.756;2022-12-13T00:52:49;37.60;;;17.27;;
3207;SDS011;1616;52.394;9.756;2022-12-13T00:55:15;45.23;;;18.53;;
3207;SDS011;1616;52.394;9.756;2022-12-13T00:57:40;44.67;;;18.43;;
3207;SDS011;1616;52.394;9.756;2022-12-13T01:00:06;41.90;;;19.20;;
3207;SDS011;1616;52.394;9.756;2022-12-13T01:02:33;40.40;;;18.57;;
3207;SDS011;1616;52.394;9.756;2022-12-13T01:04:59;37.63;;;18.27;;
3207;SDS011;1616;52.394;9.756;2022-12-13T01:07:24;54.57;;;16.70;;
3207;SDS011;1616;52.394;9.756;2022-12-13T01:09:50;51.53;;;19.37;;
3207;SDS011;1616;52.394;9.756;2022-12-13T01:12:15;52.03;;;20.17;;
3207;SDS011;1616;52.394;9.756;2022-12-13T01:14:41;41.40;;;18.00;;
3207;SDS011;1616;52.394;9.756;2022-12-13T01:17:07;40.87;;;17.70;;
3207;SDS011;1616;52.394;9.756;2022-12-13T01:19:33;52.40;;;19.23;;
3207;SDS011;1616;52.394;9.756;2022-12-13T01:22:00;43.83;;;19.17;;
3207;SDS011;1616;52.394;9.756;2022-12-13T01:24:29;42.53;;;17.50;;
3207;SDS011;1616;52.394;9.756;2022-12-13T01:26:56;45.43;;;16.90;;
3207;SDS011;1616;52.394;9.756;2022-12-13T01:29:22;42.40;;;19.00;;
3207;SDS011;1616;52.394;9.756;2022-12-13T01:31:49;47.53;;;18.93;;
3207;SDS011;1616;52.394;9.756;2022-12-13T01:34:16;52.00;;;20.40;;
3207;SDS011;1616;52.394;9.756;2022-12-13T01:36:44;43.20;;;16.27;;
3207;SDS011;1616;52.394;9.756;2022-12-13T01:39:11;42.00;;;18.50;;
3207;SDS011;1616;52.394;9.756;2022-12-13T01:41:45;48.80;;;18.43;;
3207;SDS011;1616;52.394;9.756;2022-12-13T01:47:18;38.00;;;17.63;;
3207;SDS011;1616;52.394;9.756;2022-12-13T01:49:49;46.40;;;19.50;;
3207;SDS011;1616;52.394;9.756;2022-12-13T01:52:16;44.67;;;17.30;;
3207;SDS011;1616;52.394;9.756;2022-12-13T01:54:45;31.93;;;14.97;;
3207;SDS011;1616;52.394;9.756;2022-12-13T01:57:12;47.40;;;18.07;;
3207;SDS011;1616;52.394;9.756;2022-12-13T01:59:41;38.13;;;18.20;;
3207;SDS011;1616;52.394;9.756;2022-12-13T02:02:08;48.57;;;18.73;;
3207;SDS011;1616;52.394;9.756;2022-12-13T02:04:47;39.67;;;17.80;;
3207;SDS011;1616;52.394;9.756;2022-12-13T02:07:26;42.17;;;17.73;;
3207;SDS011;1616;52.394;9.756;2022-12-13T02:09:56;33.20;;;15.33;;
3207;SDS011;1616;52.394;9.756;2022-12-13T02:12:29;43.33;;;17.40;;
3207;SDS011;1616;52.394;9.756;2022-12-13T02:15:01;51.23;;;18.70;;
3207;SDS011;1616;52.394;9.756;2022-12-13T02:23:19;45.07;;;18.83;;
3207;SDS011;1616;52.394;9.756;2022-12-13T02:26:18;43.63;;;18.17;;
3207;SDS011;1616;52.394;9.756;2022-12-13T02:32:16;41.70;;;16.57;;
3207;SDS011;1616;52.394;9.756;2022-12-13T02:35:09;37.47;;;16.20;;
3207;SDS011;1616;52.394;9.756;2022-12-13T02:37:50;39.43;;;15.20;;
3207;SDS011;1616;52.394;9.756;2022-12-13T02:40:38;41.23;;;16.10;;
3207;SDS011;1616;52.394;9.756;2022-12-13T02:43:22;45.07;;;15.70;;
3207;SDS011;1616;52.394;9.756;2022-12-13T02:45:56;38.47;;;16.07;;
3207;SDS011;1616;52.394;9.756;2022-12-13T02:48:34;40.93;;;15.70;;
3207;SDS011;1616;52.394;9.756;2022-12-13T02:51:02;45.67;;;17.93;;
3207;SDS011;1616;52.394;9.756;2022-12-13T02:53:29;48.10;;;19.77;;
3207;SDS011;1616;52.394;9.756;2022-12-13T02:55:57;41.57;;;17.00;;
3207;SDS011;1616;52.394;9.756;2022-12-13T02:58:23;40.23;;;17.00;;
3207;SDS011;1616;52.394;9.756;2022-12-13T03:06:30;43.77;;;17.30;;
3207;SDS011;1616;52.394;9.756;2022-12-13T03:12:09;42.07;;;16.87;;
3207;SDS011;1616;52.394;9.756;2022-12-13T03:15:20;41.20;;;15.67;;
3207;SDS011;1616;52.394;9.756;2022-12-13T03:18:05;31.80;;;14.10;;
3207;SDS011;1616;52.394;9.756;2022-12-13T03:20:39;35.73;;;16.73;;
3207;SDS011;1616;52.394;9.756;2022-12-13T03:23:29;43.53;;;17.60;;
3207;SDS011;1616;52.394;9.756;2022-12-13T03:25:56;50.27;;;17.37;;
3207;SDS011;1616;52.394;9.756;2022-12-13T03:28:26;35.07;;;14.13;;
3207;SDS011;1616;52.394;9.756;2022-12-13T03:30:51;35.67;;;17.40;;
3207;SDS011;1616;52.394;9.756;2022-12-13T03:33:17;38.13;;;17.47;;
3207;SDS011;1616;52.394;9.756;2022-12-13T03:35:43;43.00;;;16.70;;
3207;SDS011;1616;52.394;9.756;2022-12-13T03:38:09;34.53;;;13.67;;
3207;SDS011;1616;52.394;9.756;2022-12-13T03:40:37;49.57;;;18.20;;
3207;SDS011;1616;52.394;9.756;2022-12-13T03:43:02;35.37;;;15.30;;
3207;SDS011;1616;52.394;9.756;2022-12-13T03:45:28;44.37;;;16.87;;
3207;SDS011;1616;52.394;9.756;2022-12-13T03:47:53;44.50;;;17.67;;
3207;SDS011;1616;52.394;9.756;2022-12-13T03:50:19;45.43;;;17.83;;
3207;SDS011;1616;52.394;9.756;2022-12-13T03:52:45;51.60;;;18.60;;
3207;SDS011;1616;52.394;9.756;2022-12-13T03:55:12;43.93;;;19.30;;
3207;SDS011;1616;52.394;9.756;2022-12-13T03:57:38;47.77;;;19.33;;
3207;SDS011;1616;52.394;9.756;2022-12-13T04:00:04;43.07;;;17.60;;
3207;SDS011;1616;52.394;9.756;2022-12-13T04:02:30;50.53;;;18.30;;
3207;SDS011;1616;52.394;9.756;2022-12-13T04:04:56;49.17;;;18.17;;
3207;SDS011;1616;52.394;9.756;2022-12-13T04:07:22;41.77;;;18.70;;
3207;SDS011;1616;52.394;9.756;2022-12-13T04:09:47;44.47;;;18.57;;
3207;SDS011;1616;52.394;9.756;2022-12-13T04:12:13;40.57;;;17.30;;
3207;SDS011;1616;52.394;9.756;2022-12-13T04:14:58;38.07;;;18.40;;
3207;SDS011;1616;52.394;9.756;2022-12-13T04:17:24;37.27;;;17.47;;
3207;SDS011;1616;52.394;9.756;2022-12-13T04:19:49;45.73;;;19.37;;
3207;SDS011;1616;52.394;9.756;2022-12-13T04:22:15;49.07;;;18.57;;
3207;SDS011;1616;52.394;9.756;2022-12-13T04:24:40;41.53;;;18.07;;
3207;SDS011;1616;52.394;9.756;2022-12-13T04:27:06;42.73;;;17.00;;
3207;SDS011;1616;52.394;9.756;2022-12-13T04:29:31;42.23;;;17.00;;
3207;SDS011;1616;52.394;9.756;2022-12-13T04:31:57;36.47;;;16.80;;
3207;SDS011;1616;52.394;9.756;2022-12-13T04:34:23;41.27;;;19.10;;
3207;SDS011;1616;52.394;9.756;2022-12-13T04:36:48;38.80;;;19.03;;
3207;SDS011;1616;52.394;9.756;2022-12-13T04:39:14;34.90;;;18.07;;
3207;SDS011;1616;52.394;9.756;2022-12-13T04:41:39;42.00;;;17.70;;
3207;SDS011;1616;52.394;9.756;2022-12-13T04:44:06;48.00;;;19.27;;
3207;SDS011;1616;52.394;9.756;2022-12-13T04:46:33;41.70;;;18.53;;
3207;SDS011;1616;52.394;9.756;2022-12-13T04:48:59;45.23;;;16.97;;
3207;SDS011;1616;52.394;9.756;2022-12-13T04:51:26;47.93;;;21.27;;
3207;SDS011;1616;52.394;9.756;2022-12-13T04:53:52;46.40;;;18.50;;
3207;SDS011;1616;52.394;9.756;2022-12-13T04:56:17;39.90;;;17.43;;
3207;SDS011;1616;52.394;9.756;2022-12-13T04:58:44;41.47;;;18.77;;
3207;SDS011;1616;52.394;9.756;2022-12-13T05:01:10;45.27;;;19.67;;
3207;SDS011;1616;52.394;9.756;2022-12-13T05:03:37;44.97;;;19.57;;
3207;SDS011;1616;52.394;9.756;2022-12-13T05:06:04;35.50;;;17.10;;
3207;SDS011;1616;52.394;9.756;2022-12-13T05:08:31;41.27;;;17.03;;
3207;SDS011;1616;52.394;9.756;2022-12-13T05:10:56;41.50;;;18.60;;
3207;SDS011;1616;52.394;9.756;2022-12-13T05:13:22;45.83;;;19.37;;
3207;SDS011;1616;52.394;9.756;2022-12-13T05:15:57;41.90;;;16.57;;
3207;SDS011;1616;52.394;9.756;2022-12-13T05:18:25;45.07;;;19.40;;
3207;SDS011;1616;52.394;9.756;2022-12-13T05:20:51;46.13;;;18.43;;
3207;SDS011;1616;52.394;9.756;2022-12-13T05:23:18;38.50;;;16.70;;
3207;SDS011;1616;52.394;9.756;2022-12-13T05:25:45;47.50;;;16.40;;
3207;SDS011;1616;52.394;9.756;2022-12-13T05:28:11;41.27;;;18.40;;
3207;SDS011;1616;52.394;9.756;2022-12-13T05:30:37;49.97;;;18.57;;
3207;SDS011;1616;52.394;9.756;2022-12-13T05:33:07;40.70;;;18.07;;
3207;SDS011;1616;52.394;9.756;2022-12-13T05:35:33;47.87;;;20.40;;
3207;SDS011;1616;52.394;9.756;2022-12-13T05:37:59;47.33;;;18.60;;
3207;SDS011;1616;52.394;9.756;2022-12-13T05:40:26;50.20;;;19.27;;
3207;SDS011;1616;52.394;9.756;2022-12-13T05:42:53;44.83;;;20.20;;
3207;SDS011;1616;52.394;9.756;2022-12-13T05:45:19;46.57;;;19.77;;
3207;SDS011;1616;52.394;9.756;2022-12-13T05:47:46;47.97;;;18.33;;
3207;SDS011;1616;52.394;9.756;2022-12-13T05:50:12;48.60;;;20.33;;
3207;SDS011;1616;52.394;9.756;2022-12-13T05:52:39;58.20;;;21.33;;
3207;SDS011;1616;52.394;9.756;2022-12-13T05:55:06;45.23;;;18.77;;
3207;SDS011;1616;52.394;9.756;2022-12-13T05:57:32;39.20;;;17.07;;
3207;SDS011;1616;52.394;9.756;2022-12-13T05:59:58;46.63;;;17.87;;
3207;SDS011;1616;52.394;9.756;2022-12-13T06:02:23;40.07;;;19.13;;
3207;SDS011;1616;52.394;9.756;2022-12-13T06:04:49;43.70;;;18.37;;
3207;SDS011;1616;52.394;9.756;2022-12-13T06:07:15;45.57;;;19.10;;
3207;SDS011;1616;52.394;9.756;2022-12-13T06:09:41;41.77;;;17.93;;
3207;SDS011;1616;52.394;9.756;2022-12-13T06:12:06;41.27;;;18.17;;
3207;SDS011;1616;52.394;9.756;2022-12-13T06:14:33;44.23;;;18.23;;
3207;SDS011;1616;52.394;9.756;2022-12-13T06:16:59;45.17;;;19.20;;
3207;SDS011;1616;52.394;9.756;2022-12-13T06:19:25;38.60;;;15.57;;
3207;SDS011;1616;52.394;9.756;2022-12-13T06:21:53;45.60;;;20.47;;
3207;SDS011;1616;52.394;9.756;2022-12-13T06:24:19;40.40;;;17.00;;
3207;SDS011;1616;52.394;9.756;2022-12-13T06:26:46;47.63;;;20.00;;
3207;SDS011;1616;52.394;9.756;2022-12-13T06:29:13;42.70;;;17.93;;
3207;SDS011;1616;52.394;9.756;2022-12-13T06:31:41;38.40;;;16.57;;
3207;SDS011;1616;52.394;9.756;2022-12-13T06:34:07;37.60;;;16.40;;
3207;SDS011;1616;52.394;9.756;2022-12-13T06:36:32;52.83;;;19.10;;
3207;SDS011;1616;52.394;9.756;2022-12-13T06:39:02;39.90;;;15.87;;
3207;SDS011;1616;52.394;9.756;2022-12-13T06:41:29;38.83;;;15.70;;
3207;SDS011;1616;52.394;9.756;2022-12-13T06:43:55;43.03;;;18.00;;
3207;SDS011;1616;52.394;9.756;2022-12-13T06:46:20;43.07;;;18.03;;
3207;SDS011;1616;52.394;9.756;2022-12-13T06:48:46;44.10;;;19.07;;
3207;SDS011;1616;52.394;9.756;2022-12-13T06:51:11;36.83;;;13.87;;
3207;SDS011;1616;52.394;9.756;2022-12-13T06:53:38;49.00;;;18.37;;
3207;SDS011;1616;52.394;9.756;2022-12-13T06:56:06;49.40;;;19.20;;
3207;SDS011;1616;52.394;9.756;2022-12-13T06:58:33;39.80;;;16.13;;
3207;SDS011;1616;52.394;9.756;2022-12-13T07:01:03;49.53;;;17.90;;
3207;SDS011;1616;52.394;9.756;2022-12-13T07:03:37;49.70;;;18.20;;
3207;SDS011;1616;52.394;9.756;2022-12-13T07:06:04;41.73;;;17.73;;
3207;SDS011;1616;52.394;9.756;2022-12-13T07:08:32;51.17;;;19.73;;
3207;SDS011;1616;52.394;9.756;2022-12-13T07:10:58;53.27;;;17.40;;
3207;SDS011;1616;52.394;9.756;2022-12-13T07:13:24;56.03;;;19.27;;
3207;SDS011;1616;52.394;9.756;2022-12-13T07:15:49;42.57;;;16.10;;
3207;SDS011;1616;52.394;9.756;2022-12-13T07:18:16;40.43;;;17.83;;
3207;SDS011;1616;52.394;9.756;2022-12-13T07:20:42;50.07;;;18.60;;
3207;SDS011;1616;52.394;9.756;2022-12-13T07:23:08;50.73;;;18.90;;
3207;SDS011;1616;52.394;9.756;2022-12-13T07:25:35;52.03;;;18.40;;
3207;SDS011;1616;52.394;9.756;2022-12-13T07:28:04;55.43;;;16.87;;
3207;SDS011;1616;52.394;9.756;2022-12-13T07:30:32;46.63;;;18.10;;
3207;SDS011;1616;52.394;9.756;2022-12-13T07:33:03;59.80;;;19.83;;
3207;SDS011;1616;52.394;9.756;2022-12-13T07:35:30;50.57;;;19.40;;
3207;SDS011;1616;52.394;9.756;2022-12-13T07:37:56;42.77;;;17.90;;
3207;SDS011;1616;52.394;9.756;2022-12-13T07:40:23;53.93;;;19.50;;
3207;SDS011;1616;52.394;9.756;2022-12-13T07:42:52;48.00;;;18.57;;
3207;SDS011;1616;52.394;9.756;2022-12-13T07:45:20;45.33;;;17.80;;
3207;SDS011;1616;52.394;9.756;2022-12-13T07:47:47;54.63;;;18.80;;
3207;SDS011;1616;52.394;9.756;2022-12-13T07:50:13;45.43;;;17.80;;
3207;SDS011;1616;52.394;9.756;2022-12-13T07:52:39;48.73;;;18.37;;
3207;SDS011;1616;52.394;9.756;2022-12-13T07:55:05;53.40;;;18.87;;
3207;SDS011;1616;52.394;9.756;2022-12-13T07:57:32;46.30;;;19.03;;
3207;SDS011;1616;52.394;9.756;2022-12-13T07:59:59;44.63;;;19.37;;
3207;SDS011;1616;52.394;9.756;2022-12-13T08:02:25;41.87;;;17.40;;
3207;SDS011;1616;52.394;9.756;2022-12-13T08:04:51;38.33;;;17.50;;
3207;SDS011;1616;52.394;9.756;2022-12-13T08:07:17;37.17;;;16.20;;
3207;SDS011;1616;52.394;9.756;2022-12-13T08:09:43;41.90;;;18.00;;
3207;SDS011;1616;52.394;9.756;2022-12-13T08:12:08;45.30;;;18.20;;
3207;SDS011;1616;52.394;9.756;2022-12-13T08:14:34;36.80;;;17.63;;
3207;SDS011;1616;52.394;9.756;2022-12-13T08:17:00;41.30;;;18.07;;
3207;SDS011;1616;52.394;9.756;2022-12-13T08:19:26;41.60;;;17.53;;
3207;SDS011;1616;52.394;9.756;2022-12-13T08:21:51;35.93;;;16.87;;
3207;SDS011;1616;52.394;9.756;2022-12-13T08:24:18;37.00;;;16.50;;
3207;SDS011;1616;52.394;9.756;2022-12-13T08:26:43;41.17;;;18.73;;
3207;SDS011;1616;52.394;9.756;2022-12-13T08:29:10;34.50;;;18.40;;
3207;SDS011;1616;52.394;9.756;2022-12-13T08:31:37;35.53;;;17.67;;
3207;SDS011;1616;52.394;9.756;2022-12-13T08:34:03;32.50;;;17.07;;
3207;SDS011;1616;52.394;9.756;2022-12-13T08:36:29;32.67;;;16.37;;
3207;SDS011;1616;52.394;9.756;2022-12-13T08:38:55;37.43;;;18.53;;
3207;SDS011;1616;52.394;9.756;2022-12-13T08:41:22;37.40;;;18.70;;
3207;SDS011;1616;52.394;9.756;2022-12-13T08:43:48;31.90;;;16.93;;
3207;SDS011;1616;52.394;9.756;2022-12-13T08:46:14;32.37;;;17.47;;
3207;SDS011;1616;52.394;9.756;2022-12-13T08:48:40;30.77;;;18.67;;
3207;SDS011;1616;52.394;9.756;2022-12-13T08:51:07;35.53;;;19.33;;
3207;SDS011;1616;52.394;9.756;2022-12-13T08:53:36;30.13;;;17.57;;
3207;SDS011;1616;52.394;9.756;2022-12-13T08:56:03;36.43;;;19.37;;
3207;SDS011;1616;52.394;9.756;2022-12-13T08:58:31;30.70;;;16.70;;
3207;SDS011;1616;52.394;9.756;2022-12-13T09:00:57;33.43;;;18.33;;
3207;SDS011;1616;52.394;9.756;2022-12-13T09:03:22;36.50;;;19.33;;
3207;SDS011;1616;52.394;9.756;2022-12-13T09:05:48;36.10;;;19.00;;
3207;SDS011;1616;52.394;9.756;2022-12-13T09:08:14;39.17;;;19.40;;
3207;SDS011;1616;52.394;9.756;2022-12-13T09:10:41;34.40;;;20.63;;
3207;SDS011;1616;52.394;9.756;2022-12-13T09:13:06;34.97;;;20.00;;
3207;SDS011;1616;52.394;9.756;2022-12-13T09:15:32;31.20;;;18.90;;
3207;SDS011;1616;52.394;9.756;2022-12-13T09:17:58;29.07;;;19.13;;
3207;SDS011;1616;52.394;9.756;2022-12-13T09:20:24;34.23;;;20.90;;
3207;SDS011;1616;52.394;9.756;2022-12-13T09:22:50;31.53;;;19.83;;
3207;SDS011;1616;52.394;9.756;2022-12-13T09:25:19;28.80;;;19.40;;
3207;SDS011;1616;52.394;9.756;2022-12-13T09:27:44;30.43;;;19.10;;
3207;SDS011;1616;52.394;9.756;2022-12-13T09:30:10;32.70;;;20.30;;
3207;SDS011;1616;52.394;9.756;2022-12-13T09:32:37;34.80;;;22.70;;
3207;SDS011;1616;52.394;9.756;2022-12-13T09:35:05;36.37;;;20.70;;
3207;SDS011;1616;52.394;9.756;2022-12-13T09:37:31;30.13;;;20.10;;
3207;SDS011;1616;52.394;9.756;2022-12-13T09:39:56;27.77;;;19.37;;
3207;SDS011;1616;52.394;9.756;2022-12-13T09:42:27;30.87;;;20.00;;
3207;SDS011;1616;52.394;9.756;2022-12-13T09:44:55;29.33;;;19.87;;
3207;SDS011;1616;52.394;9.756;2022-12-13T09:47:29;29.53;;;19.50;;
3207;SDS011;1616;52.394;9.756;2022-12-13T09:50:04;35.30;;;21.27;;
3207;SDS011;1616;52.394;9.756;2022-12-13T09:52:36;31.13;;;20.37;;
3207;SDS011;1616;52.394;9.756;2022-12-13T09:55:17;29.30;;;20.97;;
3207;SDS011;1616;52.394;9.756;2022-12-13T09:57:43;33.97;;;20.97;;
3207;SDS011;1616;52.394;9.756;2022-12-13T10:00:13;28.23;;;19.43;;
3207;SDS011;1616;52.394;9.756;2022-12-13T10:02:47;29.13;;;20.73;;
3207;SDS011;1616;52.394;9.756;2022-12-13T10:05:29;29.77;;;19.70;;
3207;SDS011;1616;52.394;9.756;2022-12-13T10:07:58;30.03;;;19.47;;
3207;SDS011;1616;52.394;9.756;2022-12-13T10:10:26;31.47;;;21.63;;
3207;SDS011;1616;52.394;9.756;2022-12-13T10:13:08;31.37;;;20.17;;
3207;SDS011;1616;52.394;9.756;2022-12-13T10:15:42;29.67;;;19.70;;
3207;SDS011;1616;52.394;9.756;2022-12-13T10:18:13;32.03;;;20.90;;
3207;SDS011;1616;52.394;9.756;2022-12-13T10:20:49;30.03;;;21.13;;
3207;SDS011;1616;52.394;9.756;2022-12-13T10:23:15;25.30;;;18.50;;
3207;SDS011;1616;52.394;9.756;2022-12-13T10:25:51;28.37;;;18.57;;
3207;SDS011;1616;52.394;9.756;2022-12-13T10:28:25;25.20;;;18.50;;
3207;SDS011;1616;52.394;9.756;2022-12-13T10:30:55;26.40;;;18.73;;
3207;SDS011;1616;52.394;9.756;2022-12-13T10:33:28;27.80;;;19.33;;
3207;SDS011;1616;52.394;9.756;2022-12-13T10:38:54;28.13;;;19.87;;
3207;SDS011;1616;52.394;9.756;2022-12-13T10:46:32;28.10;;;20.40;;
3207;SDS011;1616;52.394;9.756;2022-12-13T10:48:58;24.00;;;18.40;;
3207;SDS011;1616;52.394;9.756;2022-12-13T10:51:25;28.13;;;19.80;;
3207;SDS011;1616;52.394;9.756;2022-12-13T10:56:31;30.50;;;19.80;;
3207;SDS011;1616;52.394;9.756;2022-12-13T10:59:10;24.20;;;18.80;;
3207;SDS011;1616;52.394;9.756;2022-12-13T11:01:42;26.33;;;18.40;;
3207;SDS011;1616;52.394;9.756;2022-12-13T11:06:53;25.73;;;19.50;;
3207;SDS011;1616;52.394;9.756;2022-12-13T11:11:58;29.70;;;19.77;;
3207;SDS011;1616;52.394;9.756;2022-12-13T11:14:28;32.53;;;20.30;;
3207;SDS011;1616;52.394;9.756;2022-12-13T11:16:59;28.00;;;20.20;;
3207;SDS011;1616;52.394;9.756;2022-12-13T11:19:39;31.30;;;20.37;;
3207;SDS011;1616;52.394;9.756;2022-12-13T11:22:18;29.80;;;19.70;;
3207;SDS011;1616;52.394;9.756;2022-12-13T11:24:50;28.67;;;19.20;;
3207;SDS011;1616;52.394;9.756;2022-12-13T11:27:52;27.43;;;20.10;;
3207;SDS011;1616;52.394;9.756;2022-12-13T11:33:43;33.00;;;20.97;;
3207;SDS011;1616;52.394;9.756;2022-12-13T11:39:05;29.33;;;20.60;;
3207;SDS011;1616;52.394;9.756;2022-12-13T11:47:12;25.83;;;19.30;;
3207;SDS011;1616;52.394;9.756;2022-12-13T11:49:43;28.87;;;19.80;;
3207;SDS011;1616;52.394;9.756;2022-12-13T11:52:12;32.27;;;21.30;;
3207;SDS011;1616;52.394;9.756;2022-12-13T11:55:00;25.97;;;20.13;;
3207;SDS011;1616;52.394;9.756;2022-12-13T12:03:19;28.17;;;19.40;;
3207;SDS011;1616;52.394;9.756;2022-12-13T12:08:57;28.53;;;19.90;;
3207;SDS011;1616;52.394;9.756;2022-12-13T12:11:27;29.93;;;21.47;;
3207;SDS011;1616;52.394;9.756;2022-12-13T12:19:13;32.03;;;21.23;;
3207;SDS011;1616;52.394;9.756;2022-12-13T12:22:27;33.63;;;22.00;;
3207;SDS011;1616;52.394;9.756;2022-12-13T12:27:37;33.30;;;22.63;;
3207;SDS011;1616;52.394;9.756;2022-12-13T12:37:52;36.00;;;20.23;;
3207;SDS011;1616;52.394;9.756;2022-12-13T12:40:47;35.10;;;21.40;;
3207;SDS011;1616;52.394;9.756;2022-12-13T12:43:38;41.27;;;22.20;;
3207;SDS011;1616;52.394;9.756;2022-12-13T12:46:10;32.77;;;18.97;;
3207;SDS011;1616;52.394;9.756;2022-12-13T12:53:48;40.40;;;20.57;;
3207;SDS011;1616;52.394;9.756;2022-12-13T12:59:10;42.00;;;19.13;;
3207;SDS011;1616;52.394;9.756;2022-12-13T13:04:34;38.63;;;18.00;;
3207;SDS011;1616;52.394;9.756;2022-12-13T13:07:09;36.77;;;18.67;;
3207;SDS011;1616;52.394;9.756;2022-12-13T13:09:45;37.57;;;19.37;;
3207;SDS011;1616;52.394;9.756;2022-12-13T13:12:12;46.43;;;18.77;;
3207;SDS011;1616;52.394;9.756;2022-12-13T13:14:38;44.83;;;18.50;;
3207;SDS011;1616;52.394;9.756;2022-12-13T13:19:42;45.97;;;20.70;;
3207;SDS011;1616;52.394;9.756;2022-12-13T13:22:43;41.40;;;18.87;;
3207;SDS011;1616;52.394;9.756;2022-12-13T13:27:32;38.80;;;18.50;;
3207;SDS011;1616;52.394;9.756;2022-12-13T13:30:25;37.93;;;17.47;;
3207;SDS011;1616;52.394;9.756;2022-12-13T13:32:51;41.53;;;19.33;;
3207;SDS011;1616;52.394;9.756;2022-12-13T13:38:01;34.07;;;17.70;;
3207;SDS011;1616;52.394;9.756;2022-12-13T14:05:18;34.53;;;16.40;;
3207;SDS011;1616;52.394;9.756;2022-12-13T14:17:14;37.83;;;18.13;;
3207;SDS011;1616;52.394;9.756;2022-12-13T14:30:49;40.20;;;16.57;;
3207;SDS011;1616;52.394;9.756;2022-12-13T14:33:19;36.50;;;18.20;;
3207;SDS011;1616;52.394;9.756;2022-12-13T14:35:54;33.70;;;17.00;;
3207;SDS011;1616;52.394;9.756;2022-12-13T14:38:22;35.30;;;14.73;;
3207;SDS011;1616;52.394;9.756;2022-12-13T14:40:54;39.17;;;16.40;;
3207;SDS011;1616;52.394;9.756;2022-12-13T14:43:25;35.77;;;16.50;;
3207;SDS011;1616;52.394;9.756;2022-12-13T14:46:00;32.33;;;16.37;;
3207;SDS011;1616;52.394;9.756;2022-12-13T14:48:33;34.93;;;17.07;;
3207;SDS011;1616;52.394;9.756;2022-12-13T14:54:03;34.50;;;16.60;;
3207;SDS011;1616;52.394;9.756;2022-12-13T14:56:31;37.23;;;15.90;;
3207;SDS011;1616;52.394;9.756;2022-12-13T14:58:58;37.43;;;16.53;;
3207;SDS011;1616;52.394;9.756;2022-12-13T15:01:35;33.23;;;17.17;;
3207;SDS011;1616;52.394;9.756;2022-12-13T15:07:05;32.00;;;15.97;;
3207;SDS011;1616;52.394;9.756;2022-12-13T15:09:37;33.13;;;15.73;;
3207;SDS011;1616;52.394;9.756;2022-12-13T15:12:12;33.20;;;16.37;;
3207;SDS011;1616;52.394;9.756;2022-12-13T15:14:45;36.63;;;17.33;;
3207;SDS011;1616;52.394;9.756;2022-12-13T15:19:57;30.63;;;15.23;;
3207;SDS011;1616;52.394;9.756;2022-12-13T15:22:24;40.77;;;18.57;;
3207;SDS011;1616;52.394;9.756;2022-12-13T15:24:50;34.20;;;15.83;;
3207;SDS011;1616;52.394;9.756;2022-12-13T15:27:17;38.13;;;17.07;;
3207;SDS011;1616;52.394;9.756;2022-12-13T15:29:45;32.73;;;17.30;;
3207;SDS011;1616;52.394;9.756;2022-12-13T15:32:13;39.07;;;16.57;;
3207;SDS011;1616;52.394;9.756;2022-12-13T15:34:43;30.63;;;15.70;;
3207;SDS011;1616;52.394;9.756;2022-12-13T15:37:23;42.93;;;17.57;;
3207;SDS011;1616;52.394;9.756;2022-12-13T15:39:54;36.80;;;16.10;;
3207;SDS011;1616;52.394;9.756;2022-12-13T15:45:00;35.27;;;15.10;;
3207;SDS011;1616;52.394;9.756;2022-12-13T15:47:30;33.73;;;14.93;;
3207;SDS011;1616;52.394;9.756;2022-12-13T15:50:04;33.57;;;15.77;;
3207;SDS011;1616;52.394;9.756;2022-12-13T15:55:00;39.83;;;15.70;;
3207;SDS011;1616;52.394;9.756;2022-12-13T15:57:30;24.70;;;13.23;;
3207;SDS011;1616;52.394;9.756;2022-12-13T16:02:47;39.23;;;16.37;;
3207;SDS011;1616;52.394;9.756;2022-12-13T16:08:03;34.40;;;14.57;;
3207;SDS011;1616;52.394;9.756;2022-12-13T16:10:32;34.53;;;16.47;;
3207;SDS011;1616;52.394;9.756;2022-12-13T16:13:00;33.43;;;15.27;;
3207;SDS011;1616;52.394;9.756;2022-12-13T16:18:20;29.87;;;13.30;;
3207;SDS011;1616;52.394;9.756;2022-12-13T16:20:48;39.67;;;15.70;;
3207;SDS011;1616;52.394;9.756;2022-12-13T16:23:16;40.57;;;15.73;;
3207;SDS011;1616;52.394;9.756;2022-12-13T16:25:42;39.83;;;15.77;;
3207;SDS011;1616;52.394;9.756;2022-12-13T16:28:12;33.73;;;14.70;;
3207;SDS011;1616;52.394;9.756;2022-12-13T16:33:17;45.17;;;16.23;;
3207;SDS011;1616;52.394;9.756;2022-12-13T16:35:46;32.30;;;14.73;;
3207;SDS011;1616;52.394;9.756;2022-12-13T16:38:12;38.70;;;14.93;;
3207;SDS011;1616;52.394;9.756;2022-12-13T16:40:40;30.97;;;14.90;;
3207;SDS011;1616;52.394;9.756;2022-12-13T16:43:13;39.23;;;15.67;;
3207;SDS011;1616;52.394;9.756;2022-12-13T16:45:42;33.60;;;15.20;;
3207;SDS011;1616;52.394;9.756;2022-12-13T16:48:10;44.27;;;18.23;;
3207;SDS011;1616;52.394;9.756;2022-12-13T16:50:40;38.47;;;16.20;;
3207;SDS011;1616;52.394;9.756;2022-12-13T16:53:07;40.07;;;15.37;;
3207;SDS011;1616;52.394;9.756;2022-12-13T16:55:33;43.30;;;17.10;;
3207;SDS011;1616;52.394;9.756;2022-12-13T16:58:00;53.67;;;19.20;;
3207;SDS011;1616;52.394;9.756;2022-12-13T17:00:30;45.13;;;16.57;;
3207;SDS011;1616;52.394;9.756;2022-12-13T17:02:57;53.13;;;19.63;;
3207;SDS011;1616;52.394;9.756;2022-12-13T17:05:24;39.07;;;18.77;;
3207;SDS011;1616;52.394;9.756;2022-12-13T17:07:52;49.70;;;20.80;;
3207;SDS011;1616;52.394;9.756;2022-12-13T17:10:18;48.33;;;18.60;;
3207;SDS011;1616;52.394;9.756;2022-12-13T17:12:44;47.50;;;19.17;;
3207;SDS011;1616;52.394;9.756;2022-12-13T17:15:10;49.07;;;19.57;;
3207;SDS011;1616;52.394;9.756;2022-12-13T17:17:38;37.70;;;18.67;;
3207;SDS011;1616;52.394;9.756;2022-12-13T17:20:05;37.30;;;16.40;;
3207;SDS011;1616;52.394;9.756;2022-12-13T17:22:33;37.30;;;18.00;;
3207;SDS011;1616;52.394;9.756;2022-12-13T17:24:59;41.20;;;17.97;;
3207;SDS011;1616;52.394;9.756;2022-12-13T17:27:25;41.70;;;16.80;;
3207;SDS011;1616;52.394;9.756;2022-12-13T17:29:51;37.83;;;17.43;;
3207;SDS011;1616;52.394;9.756;2022-12-13T17:32:17;38.67;;;16.73;;
3207;SDS011;1616;52.394;9.756;2022-12-13T17:34:43;42.90;;;16.70;;
3207;SDS011;1616;52.394;9.756;2022-12-13T17:37:09;45.60;;;18.57;;
3207;SDS011;1616;52.394;9.756;2022-12-13T17:39:34;36.70;;;16.77;;
3207;SDS011;1616;52.394;9.756;2022-12-13T17:42:00;36.57;;;16.53;;